Time;durP1;ratioP1;P1;durP2;ratioP2;P2;SDS_P1;SDS_P2;PMS_P1;PMS_P2;Temp;Humidity;BMP_temperature;BMP_pressure;BME280_temperature;BME280_humidity;BME280_pressure;Samples;Min_cycle;Max_cycle;Signal;HPM_P1;HPM_P2
2023/11/25 00:02:14;;;;;;;2.25;1.33;;;5.80;81.00;;;;;;5059146;28;20136;-62
2023/11/25 00:04:40;;;;;;;6.40;1.27;;;5.70;81.00;;;;;;5055222;28;20052;-62
2023/11/25 00:07:06;;;;;;;4.47;1.02;;;5.70;81.10;;;;;;5056325;28;20065;-62
2023/11/25 00:09:31;;;;;;;3.70;0.80;;;5.70;81.10;;;;;;5056692;28;20116;-62
2023/11/25 00:11:58;;;;;;;1.30;0.75;;;5.70;81.20;;;;;;5062776;28;20025;-62
2023/11/25 00:14:23;;;;;;;2.33;0.70;;;5.70;81.10;;;;;;5059700;28;20075;-62
2023/11/25 00:16:50;;;;;;;1.20;0.88;;;5.70;81.10;;;;;;5059221;28;20127;-62
2023/11/25 00:19:17;;;;;;;0.85;0.35;;;5.70;81.10;;;;;;5060868;28;20028;-62
2023/11/25 00:21:42;;;;;;;3.75;0.52;;;5.70;81.10;;;;;;5063508;28;20025;-62
2023/11/25 00:24:08;;;;;;;3.17;1.08;;;5.70;81.10;;;;;;5064679;28;20036;-62
2023/11/25 00:26:34;;;;;;;1.67;0.88;;;5.70;81.20;;;;;;5056545;28;20041;-62
2023/11/25 00:29:00;;;;;;;3.40;1.27;;;5.70;81.20;;;;;;5060276;28;20025;-63
2023/11/25 00:31:26;;;;;;;1.50;0.98;;;5.70;81.30;;;;;;5055072;28;20033;-62
2023/11/25 00:33:51;;;;;;;1.83;0.75;;;5.70;81.20;;;;;;5038356;28;20037;-62
2023/11/25 00:36:17;;;;;;;2.05;1.10;;;5.70;81.10;;;;;;5058486;28;20064;-62
2023/11/25 00:38:43;;;;;;;0.45;0.45;;;5.70;81.20;;;;;;5059078;28;20031;-62
2023/11/25 00:41:08;;;;;;;0.93;0.45;;;5.70;81.30;;;;;;5061197;28;20032;-62
2023/11/25 00:43:35;;;;;;;4.80;1.40;;;5.60;81.30;;;;;;5057827;28;20025;-62
2023/11/25 00:46:02;;;;;;;2.28;0.75;;;5.60;81.30;;;;;;5038881;28;20414;-62
2023/11/25 00:48:31;;;;;;;1.48;1.02;;;5.60;81.40;;;;;;5052882;28;20028;-62
2023/11/25 00:50:57;;;;;;;2.13;1.45;;;5.60;81.50;;;;;;5051121;28;20451;-62
2023/11/25 00:53:23;;;;;;;3.60;0.55;;;5.60;81.50;;;;;;5064059;28;20029;-62
2023/11/25 00:55:49;;;;;;;9.18;1.38;;;5.60;81.50;;;;;;5058970;28;20610;-62
2023/11/25 00:58:14;;;;;;;1.20;0.90;;;5.60;81.50;;;;;;5059717;28;20021;-62
2023/11/25 01:00:40;;;;;;;4.53;1.65;;;5.60;81.60;;;;;;5055077;28;20048;-62
2023/11/25 01:03:06;;;;;;;0.93;0.63;;;5.60;81.70;;;;;;5058489;28;20036;-62
2023/11/25 01:05:32;;;;;;;4.15;1.10;;;5.60;81.60;;;;;;5053294;28;20094;-62
2023/11/25 01:07:58;;;;;;;13.77;0.82;;;5.60;81.70;;;;;;5061154;28;20032;-62
2023/11/25 01:10:26;;;;;;;2.47;0.80;;;5.60;81.70;;;;;;5056299;28;20072;-62
2023/11/25 01:12:52;;;;;;;4.07;1.20;;;5.70;81.80;;;;;;5061989;28;20044;-63
2023/11/25 01:15:19;;;;;;;5.63;1.52;;;5.70;81.70;;;;;;5056217;28;20040;-62
2023/11/25 01:17:45;;;;;;;2.05;0.90;;;5.80;81.80;;;;;;5059850;28;20094;-62
2023/11/25 01:20:13;;;;;;;2.55;0.98;;;5.80;81.80;;;;;;5055848;28;20025;-62
2023/11/25 01:22:39;;;;;;;5.47;1.63;;;5.80;81.70;;;;;;5053429;28;20024;-62
2023/11/25 01:25:06;;;;;;;2.15;1.00;;;5.80;81.80;;;;;;5056575;28;20029;-62
2023/11/25 01:27:33;;;;;;;5.47;0.88;;;5.80;81.90;;;;;;5058385;28;20033;-62
2023/11/25 01:29:59;;;;;;;1.05;0.82;;;5.80;81.80;;;;;;5055957;28;20028;-62
2023/11/25 01:32:25;;;;;;;3.00;1.17;;;5.80;81.90;;;;;;5061252;28;20504;-62
2023/11/25 01:34:51;;;;;;;4.05;1.35;;;5.80;81.90;;;;;;5057366;28;20104;-62
2023/11/25 01:37:17;;;;;;;0.57;0.55;;;5.80;81.90;;;;;;5061779;28;20037;-62
2023/11/25 01:39:43;;;;;;;4.97;1.38;;;5.80;82.00;;;;;;5054040;28;20029;-62
2023/11/25 01:42:09;;;;;;;2.38;1.30;;;5.80;82.00;;;;;;5058338;28;20030;-62
2023/11/25 01:44:35;;;;;;;2.28;1.33;;;5.80;82.00;;;;;;5051629;28;20115;-62
2023/11/25 01:47:01;;;;;;;4.05;1.45;;;5.80;82.00;;;;;;5059654;28;20433;-62
2023/11/25 01:49:27;;;;;;;4.22;1.02;;;5.80;82.10;;;;;;5055840;28;20082;-62
2023/11/25 01:51:54;;;;;;;7.07;2.03;;;5.80;82.10;;;;;;5056680;28;20029;-62
2023/11/25 01:54:21;;;;;;;4.50;0.98;;;5.80;82.20;;;;;;5059030;28;20036;-62
2023/11/25 01:56:52;;;;;;;8.57;1.73;;;5.80;82.20;;;;;;5058046;28;20040;-62
2023/11/25 01:59:19;;;;;;;7.35;1.55;;;5.70;82.10;;;;;;5050706;28;20067;-62
2023/11/25 02:01:46;;;;;;;1.08;0.65;;;5.70;82.20;;;;;;5058090;28;20094;-62
2023/11/25 02:04:12;;;;;;;1.88;0.95;;;5.70;82.20;;;;;;5052453;28;20032;-62
2023/11/25 02:06:37;;;;;;;0.98;0.80;;;5.70;82.20;;;;;;5051924;28;20025;-62
2023/11/25 02:09:03;;;;;;;5.45;1.80;;;5.70;82.40;;;;;;5052739;28;20411;-62
2023/11/25 02:11:29;;;;;;;3.75;1.27;;;5.70;82.50;;;;;;5062306;28;20051;-62
2023/11/25 02:13:54;;;;;;;3.00;1.58;;;5.70;82.60;;;;;;5051369;28;20049;-62
2023/11/25 02:16:20;;;;;;;4.72;1.70;;;5.70;82.60;;;;;;5056998;28;20036;-62
2023/11/25 02:18:46;;;;;;;2.15;0.98;;;5.70;82.70;;;;;;5057061;28;20103;-62
2023/11/25 02:21:12;;;;;;;11.52;2.03;;;5.80;82.60;;;;;;5064097;28;20063;-62
2023/11/25 02:23:38;;;;;;;7.03;1.77;;;5.80;82.60;;;;;;5053621;28;20059;-62
2023/11/25 02:26:04;;;;;;;4.82;0.95;;;5.80;82.50;;;;;;5053710;28;20069;-62
2023/11/25 02:28:30;;;;;;;2.83;1.20;;;5.80;82.50;;;;;;5057477;28;20044;-62
2023/11/25 02:30:56;;;;;;;2.47;1.17;;;5.90;82.50;;;;;;5054048;28;20044;-62
2023/11/25 02:33:22;;;;;;;3.92;1.58;;;5.90;82.60;;;;;;5055150;28;20025;-62
2023/11/25 02:35:48;;;;;;;3.72;1.48;;;5.90;82.50;;;;;;5059556;28;20033;-62
2023/11/25 02:38:15;;;;;;;3.55;1.55;;;5.80;82.50;;;;;;5058176;28;20410;-62
2023/11/25 02:40:43;;;;;;;2.53;0.77;;;5.80;82.60;;;;;;5057784;28;20108;-62
2023/11/25 02:43:11;;;;;;;4.88;1.63;;;5.90;82.70;;;;;;5055358;28;20374;-63
2023/11/25 02:45:37;;;;;;;4.75;1.05;;;5.80;82.60;;;;;;5052937;28;20112;-62
2023/11/25 02:48:04;;;;;;;5.40;1.25;;;5.80;82.60;;;;;;5055484;28;20054;-62
2023/11/25 02:50:30;;;;;;;4.07;1.02;;;5.80;82.70;;;;;;5051788;28;20029;-62
2023/11/25 02:52:56;;;;;;;2.65;1.05;;;5.80;82.70;;;;;;5053235;28;20051;-62
2023/11/25 02:55:22;;;;;;;2.53;0.93;;;5.80;82.70;;;;;;5034468;28;20041;-62
2023/11/25 02:57:48;;;;;;;1.08;0.80;;;5.80;82.90;;;;;;5058112;28;20029;-62
2023/11/25 03:00:33;;;;;;;1.63;0.93;;;5.80;82.80;;;;;;5056128;28;20028;-62
2023/11/25 03:03:07;;;;;;;8.43;1.20;;;5.80;82.70;;;;;;5054233;28;20039;-62
2023/11/25 03:05:34;;;;;;;3.08;1.17;;;5.80;82.70;;;;;;5056721;28;20484;-62
2023/11/25 03:08:00;;;;;;;4.68;0.75;;;5.70;82.70;;;;;;5056050;28;20550;-62
2023/11/25 03:10:26;;;;;;;2.92;0.85;;;5.80;82.80;;;;;;5058142;28;20037;-62
2023/11/25 03:12:53;;;;;;;3.53;1.00;;;5.70;82.70;;;;;;5058256;28;20108;-62
2023/11/25 03:15:19;;;;;;;7.88;1.17;;;5.70;82.80;;;;;;5058454;28;20033;-62
2023/11/25 03:17:46;;;;;;;15.27;1.33;;;5.70;82.80;;;;;;5063204;28;20024;-62
2023/11/25 03:20:12;;;;;;;2.08;1.20;;;5.60;82.90;;;;;;5057556;28;20032;-62
2023/11/25 03:22:38;;;;;;;1.67;0.93;;;5.60;82.60;;;;;;5060250;28;20037;-62
2023/11/25 03:25:05;;;;;;;1.08;0.50;;;5.50;82.50;;;;;;5064638;28;20071;-62
2023/11/25 03:27:31;;;;;;;4.60;1.45;;;5.50;82.50;;;;;;5055511;28;20033;-62
2023/11/25 03:30:00;;;;;;;0.43;0.43;;;5.50;82.50;;;;;;5056316;28;20029;-62
2023/11/25 03:32:25;;;;;;;4.22;1.00;;;5.40;82.40;;;;;;5059025;28;20090;-62
2023/11/25 03:34:52;;;;;;;1.67;0.88;;;5.30;82.30;;;;;;5059388;28;20021;-63
2023/11/25 03:37:19;;;;;;;6.90;1.38;;;5.20;82.30;;;;;;5060195;28;20127;-62
2023/11/25 03:39:44;;;;;;;3.97;0.55;;;5.20;82.50;;;;;;5057193;28;20025;-62
2023/11/25 03:42:10;;;;;;;2.63;1.23;;;5.20;82.50;;;;;;5057902;28;20043;-62
2023/11/25 03:44:36;;;;;;;6.60;1.30;;;5.20;82.50;;;;;;5059610;28;20091;-62
2023/11/25 03:47:03;;;;;;;4.40;1.02;;;5.20;82.50;;;;;;5060303;28;20028;-62
2023/11/25 03:49:29;;;;;;;0.77;0.38;;;5.20;82.40;;;;;;5062712;28;20032;-62
2023/11/25 03:51:55;;;;;;;5.60;1.17;;;5.20;82.40;;;;;;5058647;28;20475;-62
2023/11/25 03:54:21;;;;;;;3.55;0.98;;;5.20;82.40;;;;;;5059809;28;20047;-62
2023/11/25 03:56:47;;;;;;;5.47;0.80;;;5.20;82.60;;;;;;5058612;28;20044;-62
2023/11/25 03:59:13;;;;;;;2.47;1.10;;;5.20;82.50;;;;;;5052487;28;20124;-62
2023/11/25 04:01:41;;;;;;;0.88;0.38;;;5.20;82.50;;;;;;5064717;28;20111;-62
2023/11/25 04:04:08;;;;;;;4.18;1.17;;;5.20;82.50;;;;;;5061103;28;20051;-62
2023/11/25 04:06:34;;;;;;;0.55;0.55;;;5.20;82.70;;;;;;5061533;28;20028;-62
2023/11/25 04:09:00;;;;;;;1.98;1.23;;;5.20;82.80;;;;;;5057080;28;20364;-62
2023/11/25 04:11:25;;;;;;;5.13;0.75;;;5.20;82.90;;;;;;5059354;28;20082;-62
2023/11/25 04:13:56;;;;;;;2.67;0.93;;;5.20;82.90;;;;;;5052730;28;20547;-62
2023/11/25 04:16:22;;;;;;;4.63;1.20;;;5.30;83.00;;;;;;5056215;28;20144;-62
2023/11/25 04:18:48;;;;;;;0.73;0.73;;;5.30;83.00;;;;;;5060158;28;20028;-62
2023/11/25 04:21:14;;;;;;;5.95;1.25;;;5.40;83.00;;;;;;5061860;28;20045;-62
2023/11/25 04:23:40;;;;;;;4.15;1.15;;;5.50;83.00;;;;;;5059118;28;20021;-62
2023/11/25 04:26:06;;;;;;;3.85;1.20;;;5.50;82.90;;;;;;5057985;28;20040;-62
2023/11/25 04:28:33;;;;;;;3.45;1.48;;;5.60;82.90;;;;;;5057691;28;20403;-62
2023/11/25 04:30:59;;;;;;;2.67;1.05;;;5.70;82.90;;;;;;5059470;28;20032;-62
2023/11/25 04:33:25;;;;;;;2.63;1.02;;;5.70;82.80;;;;;;5057588;28;20045;-62
2023/11/25 04:35:53;;;;;;;2.90;1.67;;;5.80;82.70;;;;;;5054361;28;20437;-62
2023/11/25 04:38:19;;;;;;;18.40;1.15;;;5.80;82.60;;;;;;5051879;28;20035;-62
2023/11/25 04:40:45;;;;;;;2.42;0.80;;;5.90;82.60;;;;;;5056322;28;20025;-62
2023/11/25 04:43:11;;;;;;;8.18;1.70;;;5.90;82.60;;;;;;5057271;28;20507;-62
2023/11/25 04:45:36;;;;;;;6.32;1.23;;;5.90;82.60;;;;;;5057330;28;20056;-62
2023/11/25 04:48:03;;;;;;;3.08;0.98;;;6.00;82.70;;;;;;5058940;28;20917;-62
2023/11/25 04:50:29;;;;;;;2.25;1.23;;;6.00;82.60;;;;;;5051607;28;20108;-62
2023/11/25 04:52:55;;;;;;;2.33;1.20;;;6.10;82.60;;;;;;5060372;28;20116;-62
2023/11/25 04:55:22;;;;;;;2.60;1.08;;;6.10;82.60;;;;;;5057925;28;20410;-62
2023/11/25 04:57:49;;;;;;;3.10;0.95;;;6.20;82.70;;;;;;5056905;28;20036;-62
2023/11/25 05:00:17;;;;;;;4.05;1.05;;;6.20;82.70;;;;;;5058222;28;20024;-62
2023/11/25 05:02:42;;;;;;;2.85;1.08;;;6.20;82.70;;;;;;5055171;28;20045;-62
2023/11/25 05:05:09;;;;;;;2.75;0.85;;;6.20;82.70;;;;;;5053964;28;20023;-62
2023/11/25 05:07:35;;;;;;;1.77;0.85;;;6.20;82.80;;;;;;5055069;28;20474;-62
2023/11/25 05:10:02;;;;;;;2.17;1.10;;;6.30;82.90;;;;;;5063098;28;20031;-62
2023/11/25 05:12:28;;;;;;;3.97;0.98;;;6.30;82.90;;;;;;5058775;28;20043;-62
2023/11/25 05:14:54;;;;;;;0.93;0.75;;;6.30;82.80;;;;;;5059776;28;20059;-62
2023/11/25 05:17:20;;;;;;;2.08;0.75;;;6.30;82.80;;;;;;5053206;28;20041;-62
2023/11/25 05:19:45;;;;;;;1.95;0.77;;;6.30;82.80;;;;;;5053765;28;20021;-62
2023/11/25 05:22:12;;;;;;;3.03;1.30;;;6.30;82.90;;;;;;5052696;28;20029;-62
2023/11/25 05:24:38;;;;;;;4.47;1.27;;;6.20;82.80;;;;;;5058855;28;20029;-62
2023/11/25 05:27:04;;;;;;;7.78;1.05;;;6.20;83.00;;;;;;5055685;28;20056;-63
2023/11/25 05:29:30;;;;;;;3.88;1.17;;;6.20;83.00;;;;;;5054352;28;20394;-62
2023/11/25 05:31:56;;;;;;;7.15;1.40;;;6.20;83.20;;;;;;5061507;28;20086;-62
2023/11/25 05:34:23;;;;;;;1.65;0.93;;;6.10;83.20;;;;;;5057765;28;20039;-62
2023/11/25 05:36:49;;;;;;;4.53;1.65;;;6.10;83.20;;;;;;5057516;28;20178;-63
2023/11/25 05:39:20;;;;;;;1.25;0.60;;;6.10;83.20;;;;;;5057689;28;20028;-62
2023/11/25 05:41:46;;;;;;;4.60;0.90;;;6.00;83.10;;;;;;5037492;28;20036;-62
2023/11/25 05:44:12;;;;;;;1.08;0.63;;;6.00;83.10;;;;;;5056943;28;20033;-62
2023/11/25 05:46:38;;;;;;;0.50;0.50;;;5.90;83.00;;;;;;5058292;28;20037;-62
2023/11/25 05:49:09;;;;;;;3.85;0.85;;;5.90;83.10;;;;;;5053854;28;20037;-62
2023/11/25 05:51:43;;;;;;;0.95;0.52;;;5.80;82.90;;;;;;5056260;28;20033;-62
2023/11/25 05:54:12;;;;;;;0.60;0.60;;;5.80;83.00;;;;;;5057358;28;20372;-62
2023/11/25 05:56:39;;;;;;;5.90;0.93;;;5.70;83.10;;;;;;5052416;28;20028;-62
2023/11/25 05:59:07;;;;;;;1.63;0.80;;;5.70;83.10;;;;;;5057226;28;20435;-62
2023/11/25 06:01:34;;;;;;;1.08;0.70;;;5.70;83.10;;;;;;5056142;28;20079;-63
2023/11/25 06:04:00;;;;;;;3.13;1.23;;;5.60;83.00;;;;;;5058721;28;20563;-63
2023/11/25 06:06:26;;;;;;;3.90;1.40;;;5.60;82.90;;;;;;5054757;28;20044;-63
2023/11/25 06:08:51;;;;;;;0.30;0.30;;;5.50;82.80;;;;;;5058264;28;21338;-63
2023/11/25 06:11:21;;;;;;;4.38;0.73;;;5.50;82.90;;;;;;5058576;28;20136;-63
2023/11/25 06:13:47;;;;;;;5.80;1.05;;;5.40;83.30;;;;;;5054828;28;20083;-62
2023/11/25 06:16:13;;;;;;;1.67;0.90;;;5.40;83.50;;;;;;5087384;28;20029;-63
2023/11/25 06:18:39;;;;;;;0.60;0.47;;;5.40;83.60;;;;;;5053753;28;20546;-62
2023/11/25 06:21:05;;;;;;;0.35;0.35;;;5.40;83.60;;;;;;5059806;28;20112;-63
2023/11/25 06:23:32;;;;;;;2.05;0.70;;;5.40;83.60;;;;;;5058496;28;20806;-63
2023/11/25 06:25:59;;;;;;;2.00;0.73;;;5.40;83.50;;;;;;5051541;28;20029;-62
2023/11/25 06:28:24;;;;;;;1.05;0.88;;;5.40;83.70;;;;;;5054884;28;20958;-63
2023/11/25 06:30:53;;;;;;;1.45;0.52;;;5.40;83.70;;;;;;5053141;28;20033;-63
2023/11/25 06:33:22;;;;;;;1.35;1.05;;;5.40;83.60;;;;;;5056657;28;20036;-62
2023/11/25 06:35:47;;;;;;;0.38;0.38;;;5.50;83.60;;;;;;5051181;28;20032;-62
2023/11/25 06:38:13;;;;;;;1.63;0.52;;;5.50;83.80;;;;;;5051837;28;20448;-62
2023/11/25 06:40:40;;;;;;;6.75;0.90;;;5.50;84.10;;;;;;5053354;28;20036;-62
2023/11/25 06:43:06;;;;;;;2.38;0.30;;;5.50;84.30;;;;;;5053570;28;20333;-62
2023/11/25 06:45:33;;;;;;;1.73;0.98;;;5.60;84.40;;;;;;5055926;28;20064;-62
2023/11/25 06:47:59;;;;;;;7.78;1.17;;;5.60;84.30;;;;;;5053091;28;20039;-63
2023/11/25 06:50:25;;;;;;;2.42;1.02;;;5.70;84.50;;;;;;5052194;28;20059;-63
2023/11/25 06:52:50;;;;;;;0.95;0.82;;;5.70;84.60;;;;;;5058489;28;20549;-63
2023/11/25 06:55:18;;;;;;;1.98;0.80;;;5.80;84.50;;;;;;5047969;28;20385;-63
2023/11/25 06:57:44;;;;;;;1.05;0.63;;;5.90;84.30;;;;;;5053477;28;20409;-63
2023/11/25 07:00:11;;;;;;;3.35;0.63;;;6.00;84.40;;;;;;5054421;28;20057;-63
2023/11/25 07:02:37;;;;;;;0.52;0.43;;;6.00;84.30;;;;;;5058229;28;20032;-63
2023/11/25 07:05:03;;;;;;;2.72;0.50;;;6.10;84.20;;;;;;5055669;28;20687;-63
2023/11/25 07:07:29;;;;;;;0.77;0.60;;;6.10;84.10;;;;;;5057606;28;20032;-63
2023/11/25 07:09:55;;;;;;;2.17;0.65;;;6.20;84.20;;;;;;5056491;28;20190;-63
2023/11/25 07:12:20;;;;;;;1.25;0.55;;;6.20;84.30;;;;;;5052449;28;20108;-63
2023/11/25 07:14:46;;;;;;;2.63;0.90;;;6.20;84.30;;;;;;5055909;28;20403;-63
2023/11/25 07:17:12;;;;;;;4.18;0.93;;;6.20;84.30;;;;;;5058027;28;20056;-63
2023/11/25 07:19:42;;;;;;;3.78;0.93;;;6.20;84.40;;;;;;5059632;28;20049;-62
2023/11/25 07:22:08;;;;;;;0.38;0.38;;;6.20;84.40;;;;;;5057963;28;20027;-62
2023/11/25 07:24:35;;;;;;;0.47;0.47;;;6.20;84.50;;;;;;5055086;28;20029;-62
2023/11/25 07:27:04;;;;;;;0.55;0.55;;;6.20;84.50;;;;;;5049080;28;20106;-62
2023/11/25 07:29:31;;;;;;;0.88;0.43;;;6.20;84.40;;;;;;5057643;28;20048;-63
2023/11/25 07:32:00;;;;;;;1.13;0.30;;;6.30;84.50;;;;;;5060382;28;20498;-63
2023/11/25 07:34:32;;;;;;;1.42;0.77;;;6.30;84.40;;;;;;5053998;28;20179;-62
2023/11/25 07:36:59;;;;;;;;;;;6.30;84.40;;;;;;5054205;28;20443;-63
2023/11/25 07:39:29;;;;;;;2.03;0.57;;;6.30;84.20;;;;;;5053117;28;19920;-63
2023/11/25 07:41:57;;;;;;;1.20;0.40;;;6.30;84.30;;;;;;5055407;28;20044;-63
2023/11/25 07:44:24;;;;;;;8.45;0.60;;;6.30;84.30;;;;;;5050060;28;20468;-63
2023/11/25 07:46:50;;;;;;;4.15;0.93;;;6.30;84.30;;;;;;5051977;28;20040;-63
2023/11/25 07:49:18;;;;;;;1.55;0.40;;;6.30;84.30;;;;;;5050071;28;20060;-63
2023/11/25 07:51:48;;;;;;;0.63;0.50;;;6.30;84.50;;;;;;5055625;28;20025;-62
2023/11/25 07:54:14;;;;;;;2.85;0.70;;;6.30;84.60;;;;;;5055661;28;20029;-61
2023/11/25 07:56:40;;;;;;;1.50;0.65;;;6.30;84.70;;;;;;5049876;28;20029;-61
2023/11/25 07:59:06;;;;;;;3.13;0.75;;;6.30;84.70;;;;;;5060255;28;20044;-61
2023/11/25 08:01:31;;;;;;;1.63;0.63;;;6.30;84.60;;;;;;5057089;28;20021;-63
2023/11/25 08:03:57;;;;;;;0.60;0.60;;;6.30;84.90;;;;;;5053345;28;20066;-63
2023/11/25 08:06:25;;;;;;;2.25;0.80;;;6.30;85.00;;;;;;5050804;28;20483;-64
2023/11/25 08:08:52;;;;;;;0.90;0.70;;;6.40;85.00;;;;;;5058871;28;20159;-65
2023/11/25 08:11:25;;;;;;;1.23;0.50;;;6.50;84.90;;;;;;5056024;28;20041;-64
2023/11/25 08:13:51;;;;;;;2.55;0.68;;;6.60;84.70;;;;;;5061443;28;20044;-64
2023/11/25 08:16:18;;;;;;;1.08;0.63;;;6.60;84.70;;;;;;5053367;28;20475;-63
2023/11/25 08:18:45;;;;;;;1.55;0.50;;;6.60;84.60;;;;;;5052300;28;20490;-63
2023/11/25 08:21:13;;;;;;;0.52;0.50;;;6.60;84.70;;;;;;5058556;28;20215;-64
2023/11/25 08:23:39;;;;;;;0.63;0.47;;;6.60;84.80;;;;;;5061633;28;20029;-63
2023/11/25 08:26:05;;;;;;;0.80;0.43;;;6.60;84.80;;;;;;5060433;28;20099;-64
2023/11/25 08:28:31;;;;;;;2.28;0.70;;;6.70;84.70;;;;;;5061023;28;21393;-62
2023/11/25 08:30:57;;;;;;;2.92;1.23;;;6.70;84.60;;;;;;5052239;28;20025;-63
2023/11/25 08:33:25;;;;;;;2.15;1.08;;;6.60;84.60;;;;;;5050647;28;20044;-64
2023/11/25 08:35:50;;;;;;;0.55;0.43;;;6.60;84.70;;;;;;5056718;28;20031;-63
2023/11/25 08:38:16;;;;;;;0.60;0.60;;;6.60;84.90;;;;;;5059453;28;20025;-63
2023/11/25 08:40:42;;;;;;;0.80;0.63;;;6.60;84.90;;;;;;5061101;28;20090;-62
2023/11/25 08:43:13;;;;;;;1.38;0.30;;;6.60;85.20;;;;;;5055697;28;20021;-62
2023/11/25 08:45:39;;;;;;;1.10;0.50;;;6.60;85.30;;;;;;5056310;28;20036;-65
2023/11/25 08:48:08;;;;;;;0.50;0.30;;;6.60;85.20;;;;;;5054502;28;20028;-63
2023/11/25 08:50:33;;;;;;;6.00;1.13;;;6.70;85.20;;;;;;5053351;28;20051;-63
2023/11/25 08:53:02;;;;;;;1.45;0.80;;;6.70;85.30;;;;;;5053978;28;20033;-62
2023/11/25 08:55:27;;;;;;;0.47;0.47;;;6.80;85.40;;;;;;5051445;28;20040;-62
2023/11/25 08:57:53;;;;;;;0.30;0.30;;;6.90;85.30;;;;;;5050992;28;20067;-63
2023/11/25 09:00:19;;;;;;;0.30;0.30;;;7.00;85.40;;;;;;5045804;28;20097;-63
2023/11/25 09:02:47;;;;;;;0.52;0.52;;;7.00;85.00;;;;;;5064100;28;20123;-63
2023/11/25 09:05:21;;;;;;;0.43;0.40;;;7.00;84.90;;;;;;5060141;28;20029;-63
2023/11/25 09:07:55;;;;;;;0.50;0.40;;;7.10;84.90;;;;;;5057888;28;20037;-63
2023/11/25 09:10:22;;;;;;;3.42;0.57;;;7.10;84.90;;;;;;5061871;28;20024;-63
2023/11/25 09:12:52;;;;;;;0.30;0.30;;;7.10;85.00;;;;;;5055713;28;20102;-63
2023/11/25 09:15:21;;;;;;;1.17;0.60;;;7.20;85.00;;;;;;5059181;28;20056;-63
2023/11/25 09:17:46;;;;;;;3.40;0.68;;;7.20;84.90;;;;;;5061375;28;20035;-63
2023/11/25 09:20:16;;;;;;;0.75;0.65;;;7.30;85.00;;;;;;5056086;28;20033;-63
2023/11/25 09:22:42;;;;;;;3.40;0.57;;;7.40;85.00;;;;;;5053570;28;20082;-64
2023/11/25 09:25:15;;;;;;;2.95;0.65;;;7.60;84.90;;;;;;5053896;28;20048;-64
2023/11/25 09:27:46;;;;;;;2.25;0.60;;;7.70;84.60;;;;;;5054623;28;20472;-63
2023/11/25 09:30:14;;;;;;;2.53;0.85;;;7.90;84.30;;;;;;5042627;28;20044;-64
2023/11/25 09:32:41;;;;;;;2.92;0.68;;;8.00;83.90;;;;;;5055228;28;20059;-65
2023/11/25 09:35:08;;;;;;;1.65;0.60;;;8.10;83.70;;;;;;5050124;28;20032;-64
2023/11/25 09:37:34;;;;;;;1.08;0.40;;;8.10;83.60;;;;;;5051935;28;20045;-64
2023/11/25 09:40:04;;;;;;;2.53;1.00;;;8.00;83.60;;;;;;5056973;28;20032;-63
2023/11/25 09:42:33;;;;;;;3.53;0.55;;;7.90;83.70;;;;;;5045317;28;20033;-64
2023/11/25 09:45:03;;;;;;;2.50;0.40;;;7.90;83.90;;;;;;5046734;28;20431;-63
2023/11/25 09:47:29;;;;;;;1.25;0.60;;;8.00;84.00;;;;;;5058324;28;20663;-63
2023/11/25 09:49:54;;;;;;;1.67;0.60;;;8.00;83.90;;;;;;5054169;28;20033;-63
2023/11/25 09:52:23;;;;;;;2.50;0.52;;;8.10;83.60;;;;;;5052823;28;20158;-63
2023/11/25 09:54:55;;;;;;;4.88;0.65;;;8.20;83.60;;;;;;5055181;28;20029;-63
2023/11/25 09:57:22;;;;;;;0.90;0.30;;;8.40;83.50;;;;;;5050823;28;20091;-65
2023/11/25 09:59:49;;;;;;;4.57;0.77;;;8.50;83.40;;;;;;5053689;28;20032;-63
2023/11/25 10:02:16;;;;;;;1.00;0.73;;;8.60;82.80;;;;;;5054153;28;20020;-63
2023/11/25 10:04:43;;;;;;;2.25;0.85;;;8.60;82.20;;;;;;5058862;28;20033;-64
2023/11/25 10:07:11;;;;;;;1.45;0.70;;;8.70;81.90;;;;;;5057998;28;20391;-65
2023/11/25 10:09:41;;;;;;;1.50;0.50;;;8.70;81.30;;;;;;5051145;28;20036;-65
2023/11/25 10:12:08;;;;;;;1.30;0.40;;;8.80;81.30;;;;;;5049696;28;20749;-65
2023/11/25 10:14:38;;;;;;;2.28;0.30;;;9.00;81.00;;;;;;5037936;28;20517;-65
2023/11/25 10:17:19;;;;;;;1.40;0.30;;;9.20;80.20;;;;;;5051198;28;20062;-64
2023/11/25 10:19:46;;;;;;;1.50;0.63;;;9.10;79.40;;;;;;5045517;28;20032;-63
2023/11/25 10:22:13;;;;;;;2.08;0.57;;;9.00;80.00;;;;;;5055717;28;20483;-63
2023/11/25 10:24:45;;;;;;;1.42;0.43;;;9.10;80.40;;;;;;5053620;28;20508;-62
2023/11/25 10:27:11;;;;;;;;;;;9.10;79.70;;;;;;5049441;28;20407;-64
2023/11/25 10:29:40;;;;;;;0.80;0.40;;;9.00;80.00;;;;;;5056808;28;20359;-62
2023/11/25 10:32:07;;;;;;;4.45;1.88;;;8.90;80.60;;;;;;5052362;28;20123;-64
2023/11/25 10:34:35;;;;;;;3.17;0.85;;;10.00;80.70;;;;;;5049980;28;20037;-63
2023/11/25 10:37:01;;;;;;;2.13;1.60;;;11.80;75.80;;;;;;5047232;28;20033;-63
2023/11/25 10:39:34;;;;;;;4.20;0.60;;;12.90;71.90;;;;;;5046020;28;20112;-62
2023/11/25 10:42:07;;;;;;;2.95;1.15;;;14.20;70.00;;;;;;5050878;28;20016;-63
2023/11/25 10:44:39;;;;;;;;;;;15.40;66.20;;;;;;5059891;28;20843;-64
2023/11/25 10:47:05;;;;;;;4.10;0.55;;;15.40;63.20;;;;;;5049115;28;19908;-63
2023/11/25 10:49:36;;;;;;;2.95;0.65;;;15.60;65.10;;;;;;5046901;28;20029;-63
2023/11/25 10:52:07;;;;;;;2.88;1.00;;;16.20;64.60;;;;;;5045939;28;20438;-63
2023/11/25 10:54:35;;;;;;;3.13;0.60;;;16.20;63.60;;;;;;5043932;28;20040;-63
2023/11/25 10:57:08;;;;;;;4.40;0.95;;;16.30;62.80;;;;;;5049474;28;20078;-63
2023/11/25 10:59:39;;;;;;;1.73;0.75;;;15.90;62.70;;;;;;5051270;28;20048;-63
2023/11/25 11:02:10;;;;;;;5.57;0.75;;;14.90;64.40;;;;;;5061330;28;20041;-63
2023/11/25 11:04:41;;;;;;;5.22;1.05;;;13.90;66.20;;;;;;5053903;28;20068;-63
2023/11/25 11:07:14;;;;;;;2.75;1.55;;;12.80;68.50;;;;;;5052360;28;20044;-64
2023/11/25 11:09:42;;;;;;;4.78;0.73;;;11.90;70.90;;;;;;5048819;28;20139;-63
2023/11/25 11:12:16;;;;;;;2.10;1.17;;;11.30;72.90;;;;;;5047239;28;20040;-63
2023/11/25 11:15:05;;;;;;;1.20;0.40;;;10.80;74.20;;;;;;5053500;28;20045;-63
2023/11/25 11:17:55;;;;;;;2.00;0.88;;;10.60;75.70;;;;;;5053971;28;20074;-63
2023/11/25 11:20:24;;;;;;;1.92;0.63;;;11.80;74.90;;;;;;5054762;28;20032;-63
2023/11/25 11:22:50;;;;;;;0.45;0.28;;;12.90;70.90;;;;;;5072978;28;20074;-63
2023/11/25 11:25:22;;;;;;;2.03;0.30;;;14.00;68.80;;;;;;5053070;28;20029;-63
2023/11/25 11:28:08;;;;;;;1.63;0.65;;;14.80;66.30;;;;;;5035643;28;20056;-63
2023/11/25 11:31:08;;;;;;;2.30;0.57;;;15.30;64.10;;;;;;5058532;28;20163;-63
2023/11/25 11:33:35;;;;;;;3.95;0.73;;;16.80;61.60;;;;;;5055678;28;20024;-63
2023/11/25 11:36:05;;;;;;;1.75;1.10;;;18.20;58.30;;;;;;5058807;28;20387;-63
2023/11/25 11:38:32;;;;;;;1.25;0.47;;;18.20;56.20;;;;;;5056324;28;20085;-63
2023/11/25 11:41:00;;;;;;;4.95;0.82;;;18.00;57.20;;;;;;5056838;28;20020;-64
2023/11/25 11:43:28;;;;;;;2.45;0.90;;;17.10;56.60;;;;;;5061525;28;20060;-62
2023/11/25 11:45:55;;;;;;;0.75;0.68;;;16.70;59.70;;;;;;5058482;28;20525;-62
2023/11/25 11:48:22;;;;;;;2.60;0.55;;;17.70;57.50;;;;;;5057024;28;20123;-63
2023/11/25 11:50:54;;;;;;;2.10;0.45;;;18.60;55.80;;;;;;5060473;28;20483;-63
2023/11/25 11:53:21;;;;;;;3.72;0.93;;;19.20;52.40;;;;;;5055327;28;20536;-63
2023/11/25 11:55:56;;;;;;;1.42;1.00;;;19.40;52.50;;;;;;5057095;28;20057;-63
2023/11/25 11:58:25;;;;;;;6.63;0.80;;;19.40;52.20;;;;;;5051799;28;20095;-63
2023/11/25 12:01:05;;;;;;;1.35;0.85;;;19.30;52.80;;;;;;5055609;28;20494;-63
2023/11/25 12:03:32;;;;;;;2.85;1.13;;;18.50;51.90;;;;;;5059233;28;20048;-63
2023/11/25 12:05:59;;;;;;;2.30;0.75;;;17.00;54.80;;;;;;5054149;28;20029;-63
2023/11/25 12:08:25;;;;;;;1.30;0.70;;;15.80;57.90;;;;;;5059103;28;20029;-63
2023/11/25 12:10:52;;;;;;;1.23;0.40;;;16.00;58.80;;;;;;5059101;28;20039;-63
2023/11/25 12:13:28;;;;;;;2.20;0.50;;;16.60;57.90;;;;;;5036171;28;20056;-63
2023/11/25 12:15:58;;;;;;;3.97;0.70;;;16.20;57.80;;;;;;5053366;28;20380;-63
2023/11/25 12:18:25;;;;;;;1.75;0.73;;;15.10;59.80;;;;;;5057908;28;20042;-63
2023/11/25 12:20:51;;;;;;;2.92;0.82;;;14.00;62.40;;;;;;5056337;28;20388;-63
2023/11/25 12:23:17;;;;;;;2.63;0.70;;;13.20;64.90;;;;;;5055044;28;20024;-63
2023/11/25 12:25:43;;;;;;;0.43;0.40;;;12.70;67.10;;;;;;5060672;28;20037;-63
2023/11/25 12:28:10;;;;;;;1.20;0.55;;;12.10;68.10;;;;;;5055094;28;20036;-63
2023/11/25 12:30:41;;;;;;;0.70;0.35;;;11.60;69.40;;;;;;5059452;28;20459;-62
2023/11/25 12:33:07;;;;;;;1.55;0.63;;;11.30;70.30;;;;;;5049319;28;20040;-63
2023/11/25 12:35:34;;;;;;;0.77;0.50;;;11.10;71.10;;;;;;5051996;28;20032;-63
2023/11/25 12:38:01;;;;;;;1.13;0.68;;;11.00;71.80;;;;;;5040813;28;20029;-63
2023/11/25 12:40:28;;;;;;;0.68;0.57;;;11.00;72.60;;;;;;5049552;28;20029;-63
2023/11/25 12:42:54;;;;;;;0.73;0.40;;;11.50;73.00;;;;;;5051157;28;20163;-63
2023/11/25 12:45:30;;;;;;;0.90;0.63;;;11.90;71.80;;;;;;5057863;28;20032;-63
2023/11/25 12:47:58;;;;;;;3.78;1.30;;;12.50;71.00;;;;;;5055126;28;20024;-63
2023/11/25 12:50:28;;;;;;;1.95;0.70;;;12.70;69.80;;;;;;5055517;28;20504;-63
2023/11/25 12:53:04;;;;;;;5.53;1.10;;;12.60;70.20;;;;;;5047870;28;20039;-63
2023/11/25 12:55:40;;;;;;;2.67;0.65;;;12.30;70.90;;;;;;5049801;28;20029;-63
2023/11/25 12:58:11;;;;;;;4.32;1.58;;;12.10;71.90;;;;;;5049539;28;20098;-63